Hauptseite
METAR-TAF:

METAR-TAF

Flughäfen :

Pocono Mountains Municipal Airport

Mount Pocono, Pennsylvania, Vereinigte Staaten

Breite: 41-08-20N, Länge: 075-23-46W, Höhe: 584 m

Beobachtung

Neuester Wetterbericht von vor 28 Minuten, um 19:28 UTC
Wind 18 kt aus Nordwest
Temperatur 9°C
Luftfeuchtigkeit 71%
Luftdruck 1015 hPa
Sichtweite: 16.1 km
Durchbrochene Bewölkung in der Höhe von 1800 ft

METAR: KMPO 241928Z AUTO 32018KT 10SM BKN018 09/04 A2998 RMK AO2 PK WND 30028/1854 T00940044 $

Zeit: 15:56 (19:56 UTC)


TAF: fehlend

Wetterbeobachtungen und Prognosen von mehr als 4000 Flughäfen (METAR und TAF Bericht).

Die verfügbaren Stationen werden durch gelbe und rote Markierungen auf der Karte dargestellt.

Führen Sie die Maus auf sie, um den Namen der Station zu sehen.

Darauf klicken, um die Beobachtung von Wetterbeobachtungen und Prognosen zu sehen.

Um die Karte zu ändern : klicken Sie auf den grünen Tasten mit einem schwarzen Kreuz Zum Vergrößern, auf den grünen Button mit einem Gedankenstrich zu verkleinern, oder auf die grünen Pfeile für benachbarte Karten.


METAR-TAF: